createdAt,value
2023-05-06T00:00:46.927Z,16
2023-05-06T00:20:46.864Z,15.8
2023-05-06T00:40:46.390Z,15.6
2023-05-06T01:00:50.538Z,15.3
2023-05-06T01:20:47.255Z,15.2
2023-05-06T01:40:47.331Z,15
2023-05-06T02:00:47.796Z,14.8
2023-05-06T02:20:48.850Z,14.9
2023-05-06T02:40:49.936Z,14.5
2023-05-06T03:00:50.517Z,14.7
2023-05-06T03:20:46.604Z,14.7
2023-05-06T03:40:47.300Z,14.6
2023-05-06T04:00:47.382Z,14.4
2023-05-06T04:21:09.219Z,14.2
2023-05-06T04:41:11.323Z,14.2
2023-05-06T05:01:13.188Z,14.2
2023-05-06T05:21:09.231Z,14.2
2023-05-06T05:41:10.095Z,14.3
2023-05-06T06:01:13.091Z,14.7
2023-05-06T06:21:13.763Z,14.9
2023-05-06T06:41:14.777Z,15.1
2023-05-06T07:01:12.155Z,15.5
2023-05-06T07:21:08.884Z,15.5
2023-05-06T07:41:12.407Z,16
2023-05-06T08:01:12.726Z,16.4
2023-05-06T08:21:20.506Z,16.8
2023-05-06T08:41:18.841Z,17.3
2023-05-06T09:01:11.295Z,17.2
2023-05-06T09:21:10.000Z,17.9
2023-05-06T09:41:07.913Z,18
2023-05-06T10:01:13.465Z,18.7
2023-05-06T10:21:07.496Z,18.7
2023-05-06T10:41:08.796Z,19.2
2023-05-06T11:01:18.887Z,19.6
2023-05-06T11:21:12.884Z,20.1
2023-05-06T11:41:19.205Z,20.4
2023-05-06T12:01:10.242Z,20.4
2023-05-06T12:21:14.798Z,21.3
2023-05-06T12:41:18.643Z,21.7
2023-05-06T13:01:16.507Z,22.2
2023-05-06T13:21:15.801Z,22.8
2023-05-06T13:41:08.623Z,22.7
2023-05-06T14:01:17.840Z,23.8
2023-05-06T14:21:13.304Z,24.1
2023-05-06T14:41:14.156Z,24
2023-05-06T15:01:08.188Z,24.2
2023-05-06T15:21:16.631Z,23.9
2023-05-06T15:41:08.896Z,23.9
2023-05-06T16:01:07.322Z,24.2
2023-05-06T16:21:18.161Z,24.8
2023-05-06T16:41:08.133Z,24.8
2023-05-06T17:01:07.993Z,25.4
2023-05-06T17:21:26.374Z,25.3
2023-05-06T17:41:15.296Z,24.6
2023-05-06T18:01:14.301Z,24.1
2023-05-06T18:21:15.212Z,22.8
2023-05-06T18:41:12.741Z,22.7
2023-05-06T19:00:48.493Z,21.9
2023-05-06T19:20:49.801Z,20.3
2023-05-06T19:40:47.224Z,20.2
2023-05-06T20:00:48.046Z,19.7
2023-05-06T20:20:50.022Z,19.1
2023-05-06T20:40:46.829Z,18.9
2023-05-06T21:00:47.213Z,18.1
2023-05-06T21:20:46.032Z,17.9
2023-05-06T21:40:46.977Z,17.7
2023-05-06T22:01:00.814Z,17.2
2023-05-06T22:20:46.785Z,16.9
2023-05-06T22:40:47.217Z,16.4
2023-05-06T23:00:46.526Z,16.2
2023-05-06T23:20:49.928Z,15.9
2023-05-06T23:40:50.828Z,15.7
